Current Weather

Gatwick

Gatwick, United Kingdom (EGKK)

Report from: Tuesday, July 16, 2024 3:20 PM BST
Current time: Tuesday, July 16, 2024 3:48 PM BST

Nearby weather – Weather history – Daily summaries
Weather forecast

Temperature20.0°C (68.0°F)
Dew point15.0°C (59.0°F)
Winds 9 kts (4.6 m/s, 10.4 mph) West-Southwest (250°)
Visibility6.2 mi. (10 km)
Clouds Scattered clouds 2,300 ft. (701 m)
Scattered clouds 3,100 ft. (945 m)
Altimeter29.85 in.Hg (1011 mB)
Relative humidity73 %
Density altitude897 ft. (273 m)
Flight conditions Visual Meteorological Conditions
Raw dataEGKK 161420Z 25009KT 9999 SCT023 SCT031 20/15 Q1011
An error has occurred. This application may no longer respond until reloaded. Reload 🗙